FCBB/BZV METAR and TAF weather

Enter ICAO airport designator
Station Type Date Time Source
FCBB METAR 2019/08/17 10:00 UTC NOAA

FCBB 171000Z 20009KT 9000 FEW015 BKN018 26/18 Q1016 NOSIG


Station Type Date Time Source
FCBB Decoded METAR 2019/08/17 10:00 UTC NOAA

Station name not available
Aug 17, 2019 - 06:00 AM EDT / 2019.08.17 1000 UTC
Wind: from the SSW (200 degrees) at 10 MPH (9 KT):0
Visibility: 5 mile(s):0
Sky conditions: mostly cloudy
Temperature: 78 F (26 C)
Dew Point: 64 F (18 C)
Relative Humidity: 61%
Pressure (altimeter): 30.00 in. Hg (1016 hPa)
ob: FCBB 171000Z 20009KT 9000 FEW015 BKN018 26/18 Q1016 NOSIG
cycle: 10

Station Type Date Time Source
FCBB TAF 2019/08/17 06:12 UTC NOAA

TAF TAF FCBB 170500Z 1706/1812 25005KT 8000 BKN026

Example: see airport list